Eddyville, Kentucky
Current Conditions -  °F | °C
As of 4:15 AM on Monday 26 Jan 2015 (Local Time) from K5M9 Reporting Station
Overcast Overcast  
Wind Chill: 21°   Ceiling: 1100
Heat Index: 31°   Visibility: 10mi
Dew Point: 28°   Wind: 13mph
Humidity: 89%   Direction: 330°NNW
Pressure: 29.96"   Gusts: 22mph
Location:  37.09°N, 88.08°W
Report Text: K5M9 261015Z AUTO 33011G19KT 10SM OVC011 M01/M02 A2996 RMK AO2 T10081024
Loading
Personal Weather Stations






























Interactive Weather Map New forecast layout! Learn more

10-Day Weather Forecast

Advertisements
Track Severe Weather on mobile